sensor_id;sensor_type;location;lat;lon;timestamp;temperature;humidity
3017;DHT22;1518;52.408;13.060;2022-12-18T00:00:12;13.60;62.20
3017;DHT22;1518;52.408;13.060;2022-12-18T00:03:00;13.50;62.50
3017;DHT22;1518;52.408;13.060;2022-12-18T00:05:48;13.30;61.80
3017;DHT22;1518;52.408;13.060;2022-12-18T00:08:37;13.30;62.60
3017;DHT22;1518;52.408;13.060;2022-12-18T00:11:27;13.20;62.40
3017;DHT22;1518;52.408;13.060;2022-12-18T00:14:15;13.10;62.50
3017;DHT22;1518;52.408;13.060;2022-12-18T00:17:04;13.00;62.50
3017;DHT22;1518;52.408;13.060;2022-12-18T00:19:52;12.80;62.20
3017;DHT22;1518;52.408;13.060;2022-12-18T00:22:40;12.80;61.90
3017;DHT22;1518;52.408;13.060;2022-12-18T00:25:28;12.70;62.60
3017;DHT22;1518;52.408;13.060;2022-12-18T00:28:16;12.60;62.90
3017;DHT22;1518;52.408;13.060;2022-12-18T00:31:06;12.60;63.40
3017;DHT22;1518;52.408;13.060;2022-12-18T00:33:57;12.60;63.00
3017;DHT22;1518;52.408;13.060;2022-12-18T00:36:47;12.60;64.50
3017;DHT22;1518;52.408;13.060;2022-12-18T00:39:35;12.80;64.40
3017;DHT22;1518;52.408;13.060;2022-12-18T00:42:23;13.00;64.40
3017;DHT22;1518;52.408;13.060;2022-12-18T00:45:40;13.20;64.20
3017;DHT22;1518;52.408;13.060;2022-12-18T00:48:28;13.30;63.80
3017;DHT22;1518;52.408;13.060;2022-12-18T00:51:18;13.50;63.80
3017;DHT22;1518;52.408;13.060;2022-12-18T00:54:06;13.50;63.30
3017;DHT22;1518;52.408;13.060;2022-12-18T00:56:54;13.60;63.30
3017;DHT22;1518;52.408;13.060;2022-12-18T00:59:42;13.70;63.20
3017;DHT22;1518;52.408;13.060;2022-12-18T01:02:30;13.70;63.00
3017;DHT22;1518;52.408;13.060;2022-12-18T01:05:19;13.70;62.70
3017;DHT22;1518;52.408;13.060;2022-12-18T01:08:08;13.70;62.70
3017;DHT22;1518;52.408;13.060;2022-12-18T01:10:56;13.70;62.80
3017;DHT22;1518;52.408;13.060;2022-12-18T01:13:44;13.60;62.30
3017;DHT22;1518;52.408;13.060;2022-12-18T01:16:33;13.60;62.70
3017;DHT22;1518;52.408;13.060;2022-12-18T01:19:21;13.50;62.30
3017;DHT22;1518;52.408;13.060;2022-12-18T01:22:09;13.40;62.70
3017;DHT22;1518;52.408;13.060;2022-12-18T01:24:58;13.40;62.70
3017;DHT22;1518;52.408;13.060;2022-12-18T01:27:46;13.30;62.20
3017;DHT22;1518;52.408;13.060;2022-12-18T01:30:34;13.20;61.80
3017;DHT22;1518;52.408;13.060;2022-12-18T01:33:22;13.00;62.30
3017;DHT22;1518;52.408;13.060;2022-12-18T01:36:19;13.00;62.00
3017;DHT22;1518;52.408;13.060;2022-12-18T01:39:11;12.90;62.00
3017;DHT22;1518;52.408;13.060;2022-12-18T01:42:09;12.80;62.80
3017;DHT22;1518;52.408;13.060;2022-12-18T01:45:00;12.80;62.20
3017;DHT22;1518;52.408;13.060;2022-12-18T01:47:50;12.70;62.60
3017;DHT22;1518;52.408;13.060;2022-12-18T01:50:41;12.70;62.40
3017;DHT22;1518;52.408;13.060;2022-12-18T01:53:30;12.70;63.00
3017;DHT22;1518;52.408;13.060;2022-12-18T01:56:19;12.70;64.10
3017;DHT22;1518;52.408;13.060;2022-12-18T01:59:11;12.90;64.00
3017;DHT22;1518;52.408;13.060;2022-12-18T02:01:59;13.10;63.90
3017;DHT22;1518;52.408;13.060;2022-12-18T02:04:48;13.30;63.70
3017;DHT22;1518;52.408;13.060;2022-12-18T02:07:42;13.40;63.50
3017;DHT22;1518;52.408;13.060;2022-12-18T02:10:36;13.50;63.20
3017;DHT22;1518;52.408;13.060;2022-12-18T02:13:32;12.70;62.10
3017;DHT22;1518;52.408;13.060;2022-12-18T02:16:30;13.60;62.80
3017;DHT22;1518;52.408;13.060;2022-12-18T02:19:39;13.70;62.70
3017;DHT22;1518;52.408;13.060;2022-12-18T02:22:37;13.70;62.70
3017;DHT22;1518;52.408;13.060;2022-12-18T02:25:40;13.70;62.50
3017;DHT22;1518;52.408;13.060;2022-12-18T02:28:35;13.70;62.30
3017;DHT22;1518;52.408;13.060;2022-12-18T02:31:26;13.70;62.30
3017;DHT22;1518;52.408;13.060;2022-12-18T02:34:15;13.60;62.00
3017;DHT22;1518;52.408;13.060;2022-12-18T02:37:09;13.50;61.60
3017;DHT22;1518;52.408;13.060;2022-12-18T02:39:59;13.50;61.90
3017;DHT22;1518;52.408;13.060;2022-12-18T02:42:47;13.30;67.10
3017;DHT22;1518;52.408;13.060;2022-12-18T02:45:45;13.30;61.90
3017;DHT22;1518;52.408;13.060;2022-12-18T02:48:34;13.30;61.50
3017;DHT22;1518;52.408;13.060;2022-12-18T02:51:27;13.20;61.50
3017;DHT22;1518;52.408;13.060;2022-12-18T02:54:24;13.10;61.10
3017;DHT22;1518;52.408;13.060;2022-12-18T02:57:18;13.00;61.30
3017;DHT22;1518;52.408;13.060;2022-12-18T03:00:10;13.00;61.80
3017;DHT22;1518;52.408;13.060;2022-12-18T03:03:06;12.80;61.60
3017;DHT22;1518;52.408;13.060;2022-12-18T03:06:00;12.80;62.10
3017;DHT22;1518;52.408;13.060;2022-12-18T03:08:52;12.70;62.10
3017;DHT22;1518;52.408;13.060;2022-12-18T03:11:44;12.60;63.00
3017;DHT22;1518;52.408;13.060;2022-12-18T03:14:56;12.60;62.20
3017;DHT22;1518;52.408;13.060;2022-12-18T03:17:54;12.50;62.80
3017;DHT22;1518;52.408;13.060;2022-12-18T03:20:47;12.50;63.30
3017;DHT22;1518;52.408;13.060;2022-12-18T03:23:40;12.50;63.90
3017;DHT22;1518;52.408;13.060;2022-12-18T03:26:31;12.60;63.80
3017;DHT22;1518;52.408;13.060;2022-12-18T03:29:22;12.70;63.70
3017;DHT22;1518;52.408;13.060;2022-12-18T03:32:15;12.90;63.50
3017;DHT22;1518;52.408;13.060;2022-12-18T03:35:06;13.00;63.30
3017;DHT22;1518;52.408;13.060;2022-12-18T03:37:57;13.10;63.20
3017;DHT22;1518;52.408;13.060;2022-12-18T03:40:53;13.20;63.00
3017;DHT22;1518;52.408;13.060;2022-12-18T03:43:49;13.20;62.80
3017;DHT22;1518;52.408;13.060;2022-12-18T03:46:44;13.20;62.50
3017;DHT22;1518;52.408;13.060;2022-12-18T03:49:38;13.20;62.70
3017;DHT22;1518;52.408;13.060;2022-12-18T03:52:29;13.20;62.00
3017;DHT22;1518;52.408;13.060;2022-12-18T03:55:20;13.20;62.20
3017;DHT22;1518;52.408;13.060;2022-12-18T03:58:11;13.10;62.30
3017;DHT22;1518;52.408;13.060;2022-12-18T04:01:04;13.00;62.00
3017;DHT22;1518;52.408;13.060;2022-12-18T04:03:54;13.00;62.50
3017;DHT22;1518;52.408;13.060;2022-12-18T04:06:45;13.00;61.60
3017;DHT22;1518;52.408;13.060;2022-12-18T04:09:36;12.90;62.00
3017;DHT22;1518;52.408;13.060;2022-12-18T04:12:26;12.80;61.90
3017;DHT22;1518;52.408;13.060;2022-12-18T04:15:14;12.70;62.10
3017;DHT22;1518;52.408;13.060;2022-12-18T04:18:02;12.70;61.90
3017;DHT22;1518;52.408;13.060;2022-12-18T04:20:51;12.70;62.20
3017;DHT22;1518;52.408;13.060;2022-12-18T04:23:39;12.60;62.10
3017;DHT22;1518;52.408;13.060;2022-12-18T04:26:28;12.50;62.10
3017;DHT22;1518;52.408;13.060;2022-12-18T04:29:17;12.40;62.70
3017;DHT22;1518;52.408;13.060;2022-12-18T04:32:05;12.40;63.70
3017;DHT22;1518;52.408;13.060;2022-12-18T04:34:53;12.60;63.70
3017;DHT22;1518;52.408;13.060;2022-12-18T04:37:41;12.80;63.60
3017;DHT22;1518;52.408;13.060;2022-12-18T04:40:29;12.90;63.30
3017;DHT22;1518;52.408;13.060;2022-12-18T04:43:17;13.10;63.20
3017;DHT22;1518;52.408;13.060;2022-12-18T04:46:08;13.20;62.80
3017;DHT22;1518;52.408;13.060;2022-12-18T04:48:56;13.30;62.70
3017;DHT22;1518;52.408;13.060;2022-12-18T04:51:44;13.40;62.50
3017;DHT22;1518;52.408;13.060;2022-12-18T04:54:32;13.50;62.40
3017;DHT22;1518;52.408;13.060;2022-12-18T04:57:20;13.50;62.20
3017;DHT22;1518;52.408;13.060;2022-12-18T05:00:09;13.50;62.10
3017;DHT22;1518;52.408;13.060;2022-12-18T05:03:00;13.40;62.50
3017;DHT22;1518;52.408;13.060;2022-12-18T05:05:49;13.40;61.60
3017;DHT22;1518;52.408;13.060;2022-12-18T05:08:37;13.30;61.10
3017;DHT22;1518;52.408;13.060;2022-12-18T05:11:25;13.30;61.70
3017;DHT22;1518;52.408;13.060;2022-12-18T05:14:13;13.20;61.40
3017;DHT22;1518;52.408;13.060;2022-12-18T05:17:01;13.10;61.60
3017;DHT22;1518;52.408;13.060;2022-12-18T05:19:51;13.00;61.40
3017;DHT22;1518;52.408;13.060;2022-12-18T05:22:39;12.80;61.40
3017;DHT22;1518;52.408;13.060;2022-12-18T05:25:27;12.90;61.50
3017;DHT22;1518;52.408;13.060;2022-12-18T05:28:15;12.80;61.70
3017;DHT22;1518;52.408;13.060;2022-12-18T05:31:04;12.70;61.40
3017;DHT22;1518;52.408;13.060;2022-12-18T05:33:52;12.60;61.60
3017;DHT22;1518;52.408;13.060;2022-12-18T05:36:42;12.60;62.10
3017;DHT22;1518;52.408;13.060;2022-12-18T05:39:30;12.60;61.90
3017;DHT22;1518;52.408;13.060;2022-12-18T05:42:18;12.60;62.20
3017;DHT22;1518;52.408;13.060;2022-12-18T05:45:07;12.60;62.40
3017;DHT22;1518;52.408;13.060;2022-12-18T05:47:55;12.60;63.40
3017;DHT22;1518;52.408;13.060;2022-12-18T05:50:45;12.70;63.30
3017;DHT22;1518;52.408;13.060;2022-12-18T05:53:35;12.90;63.10
3017;DHT22;1518;52.408;13.060;2022-12-18T05:56:24;13.00;62.90
3017;DHT22;1518;52.408;13.060;2022-12-18T05:59:12;13.10;62.70
3017;DHT22;1518;52.408;13.060;2022-12-18T06:02:00;13.20;62.60
3017;DHT22;1518;52.408;13.060;2022-12-18T06:04:48;13.30;62.60
3017;DHT22;1518;52.408;13.060;2022-12-18T06:07:36;13.30;62.40
3017;DHT22;1518;52.408;13.060;2022-12-18T06:10:26;13.30;62.30
3017;DHT22;1518;52.408;13.060;2022-12-18T06:13:14;13.30;62.20
3017;DHT22;1518;52.408;13.060;2022-12-18T06:16:03;13.20;62.10
3017;DHT22;1518;52.408;13.060;2022-12-18T06:18:51;13.20;62.00
3017;DHT22;1518;52.408;13.060;2022-12-18T06:21:39;13.10;62.70
3017;DHT22;1518;52.408;13.060;2022-12-18T06:24:27;13.10;62.20
3017;DHT22;1518;52.408;13.060;2022-12-18T06:27:17;13.00;61.60
3017;DHT22;1518;52.408;13.060;2022-12-18T06:30:06;13.00;61.80
3017;DHT22;1518;52.408;13.060;2022-12-18T06:32:54;12.80;71.10
3017;DHT22;1518;52.408;13.060;2022-12-18T06:35:43;12.80;61.70
3017;DHT22;1518;52.408;13.060;2022-12-18T06:38:31;12.70;61.70
3017;DHT22;1518;52.408;13.060;2022-12-18T06:41:20;12.60;62.00
3017;DHT22;1518;52.408;13.060;2022-12-18T06:44:10;12.60;62.10
3017;DHT22;1518;52.408;13.060;2022-12-18T06:46:58;12.60;62.60
3017;DHT22;1518;52.408;13.060;2022-12-18T06:49:46;12.60;62.30
3017;DHT22;1518;52.408;13.060;2022-12-18T06:52:34;12.60;63.00
3017;DHT22;1518;52.408;13.060;2022-12-18T06:55:23;12.70;63.10
3017;DHT22;1518;52.408;13.060;2022-12-18T06:58:11;12.80;63.30
3017;DHT22;1518;52.408;13.060;2022-12-18T07:01:01;13.00;63.30
3017;DHT22;1518;52.408;13.060;2022-12-18T07:03:52;13.10;63.00
3017;DHT22;1518;52.408;13.060;2022-12-18T07:06:41;13.20;62.80
3017;DHT22;1518;52.408;13.060;2022-12-18T07:09:29;13.30;62.80
3017;DHT22;1518;52.408;13.060;2022-12-18T07:12:17;13.30;62.50
3017;DHT22;1518;52.408;13.060;2022-12-18T07:15:06;13.30;62.60
3017;DHT22;1518;52.408;13.060;2022-12-18T07:17:56;13.30;62.50
3017;DHT22;1518;52.408;13.060;2022-12-18T07:20:44;13.30;62.40
3017;DHT22;1518;52.408;13.060;2022-12-18T07:23:34;13.20;61.70
3017;DHT22;1518;52.408;13.060;2022-12-18T07:26:23;13.20;62.50
3017;DHT22;1518;52.408;13.060;2022-12-18T07:29:11;13.10;62.10
3017;DHT22;1518;52.408;13.060;2022-12-18T07:31:59;13.00;62.40
3017;DHT22;1518;52.408;13.060;2022-12-18T07:34:48;13.00;62.30
3017;DHT22;1518;52.408;13.060;2022-12-18T07:37:36;12.90;61.90
3017;DHT22;1518;52.408;13.060;2022-12-18T07:40:24;12.90;62.00
3017;DHT22;1518;52.408;13.060;2022-12-18T07:43:12;12.80;61.60
3017;DHT22;1518;52.408;13.060;2022-12-18T07:46:01;12.70;62.10
3017;DHT22;1518;52.408;13.060;2022-12-18T07:48:49;12.60;61.80
3017;DHT22;1518;52.408;13.060;2022-12-18T07:51:39;12.60;62.30
3017;DHT22;1518;52.408;13.060;2022-12-18T07:54:27;12.50;62.40
3017;DHT22;1518;52.408;13.060;2022-12-18T07:57:15;12.50;63.50
3017;DHT22;1518;52.408;13.060;2022-12-18T08:00:23;12.60;63.50
3017;DHT22;1518;52.408;13.060;2022-12-18T08:03:15;12.80;63.40
3017;DHT22;1518;52.408;13.060;2022-12-18T08:06:05;13.10;63.30
3017;DHT22;1518;52.408;13.060;2022-12-18T08:08:55;13.20;63.00
3017;DHT22;1518;52.408;13.060;2022-12-18T08:11:43;13.40;62.80
3017;DHT22;1518;52.408;13.060;2022-12-18T08:14:32;13.60;62.50
3017;DHT22;1518;52.408;13.060;2022-12-18T08:17:20;13.60;62.20
3017;DHT22;1518;52.408;13.060;2022-12-18T08:20:09;13.70;62.00
3017;DHT22;1518;52.408;13.060;2022-12-18T08:22:57;13.80;61.90
3017;DHT22;1518;52.408;13.060;2022-12-18T08:25:46;13.80;61.90
3017;DHT22;1518;52.408;13.060;2022-12-18T08:28:34;13.80;61.80
3017;DHT22;1518;52.408;13.060;2022-12-18T08:31:24;13.80;61.80
3017;DHT22;1518;52.408;13.060;2022-12-18T08:34:12;13.80;61.60
3017;DHT22;1518;52.408;13.060;2022-12-18T08:37:00;13.80;61.70
3017;DHT22;1518;52.408;13.060;2022-12-18T08:39:48;13.70;61.40
3017;DHT22;1518;52.408;13.060;2022-12-18T08:42:37;13.60;61.20
3017;DHT22;1518;52.408;13.060;2022-12-18T08:45:43;13.50;61.30
3017;DHT22;1518;52.408;13.060;2022-12-18T08:48:31;13.40;61.50
3017;DHT22;1518;52.408;13.060;2022-12-18T08:51:19;13.30;61.40
3017;DHT22;1518;52.408;13.060;2022-12-18T08:54:11;13.20;61.10
3017;DHT22;1518;52.408;13.060;2022-12-18T08:56:59;13.10;61.30
3017;DHT22;1518;52.408;13.060;2022-12-18T08:59:48;13.00;61.50
3017;DHT22;1518;52.408;13.060;2022-12-18T09:02:36;12.50;61.20
3017;DHT22;1518;52.408;13.060;2022-12-18T09:05:25;12.80;61.40
3017;DHT22;1518;52.408;13.060;2022-12-18T09:08:13;12.70;61.50
3017;DHT22;1518;52.408;13.060;2022-12-18T09:11:02;12.60;61.90
3017;DHT22;1518;52.408;13.060;2022-12-18T09:13:50;12.60;61.90
3017;DHT22;1518;52.408;13.060;2022-12-18T09:16:40;12.60;62.40
3017;DHT22;1518;52.408;13.060;2022-12-18T09:19:28;12.70;63.30
3017;DHT22;1518;52.408;13.060;2022-12-18T09:22:16;12.80;63.20
3017;DHT22;1518;52.408;13.060;2022-12-18T09:25:04;13.00;63.10
3017;DHT22;1518;52.408;13.060;2022-12-18T09:27:54;13.20;62.90
3017;DHT22;1518;52.408;13.060;2022-12-18T09:30:44;13.30;62.70
3017;DHT22;1518;52.408;13.060;2022-12-18T09:33:34;13.40;62.50
3017;DHT22;1518;52.408;13.060;2022-12-18T09:36:22;13.50;62.40
3017;DHT22;1518;52.408;13.060;2022-12-18T09:39:11;13.50;62.20
3017;DHT22;1518;52.408;13.060;2022-12-18T09:41:59;13.60;62.10
3017;DHT22;1518;52.408;13.060;2022-12-18T09:44:50;13.60;62.10
3017;DHT22;1518;52.408;13.060;2022-12-18T09:47:39;13.60;61.80
3017;DHT22;1518;52.408;13.060;2022-12-18T09:50:32;13.60;61.70
3017;DHT22;1518;52.408;13.060;2022-12-18T09:53:26;13.60;61.90
3017;DHT22;1518;52.408;13.060;2022-12-18T09:56:18;13.50;61.70
3017;DHT22;1518;52.408;13.060;2022-12-18T09:59:20;13.50;61.90
3017;DHT22;1518;52.408;13.060;2022-12-18T10:02:15;13.40;62.30
3017;DHT22;1518;52.408;13.060;2022-12-18T10:05:05;13.30;61.70
3017;DHT22;1518;52.408;13.060;2022-12-18T10:08:02;13.20;61.60
3017;DHT22;1518;52.408;13.060;2022-12-18T10:10:56;13.20;61.60
3017;DHT22;1518;52.408;13.060;2022-12-18T10:13:49;13.00;61.90
3017;DHT22;1518;52.408;13.060;2022-12-18T10:16:47;13.00;61.70
3017;DHT22;1518;52.408;13.060;2022-12-18T10:19:39;12.90;62.00
3017;DHT22;1518;52.408;13.060;2022-12-18T10:22:43;12.90;62.20
3017;DHT22;1518;52.408;13.060;2022-12-18T10:25:41;12.90;62.20
3017;DHT22;1518;52.408;13.060;2022-12-18T10:28:35;12.90;62.20
3017;DHT22;1518;52.408;13.060;2022-12-18T10:31:24;12.90;62.60
3017;DHT22;1518;52.408;13.060;2022-12-18T10:34:13;12.90;63.00
3017;DHT22;1518;52.408;13.060;2022-12-18T10:37:06;13.00;62.90
3017;DHT22;1518;52.408;13.060;2022-12-18T10:40:10;13.20;63.00
3017;DHT22;1518;52.408;13.060;2022-12-18T10:43:11;13.30;62.70
3017;DHT22;1518;52.408;13.060;2022-12-18T10:46:03;13.40;62.60
3017;DHT22;1518;52.408;13.060;2022-12-18T10:48:54;13.40;62.40
3017;DHT22;1518;52.408;13.060;2022-12-18T10:51:43;13.50;62.40
3017;DHT22;1518;52.408;13.060;2022-12-18T10:54:32;13.50;62.20
3017;DHT22;1518;52.408;13.060;2022-12-18T10:57:32;13.50;62.10
3017;DHT22;1518;52.408;13.060;2022-12-18T11:00:25;13.50;62.00
3017;DHT22;1518;52.408;13.060;2022-12-18T11:03:30;13.50;61.70
3017;DHT22;1518;52.408;13.060;2022-12-18T11:06:20;13.40;61.60
3017;DHT22;1518;52.408;13.060;2022-12-18T11:09:19;13.30;62.10
3017;DHT22;1518;52.408;13.060;2022-12-18T11:12:16;13.30;61.70
3017;DHT22;1518;52.408;13.060;2022-12-18T11:15:05;13.20;61.80
3017;DHT22;1518;52.408;13.060;2022-12-18T11:17:55;13.20;61.60
3017;DHT22;1518;52.408;13.060;2022-12-18T11:20:50;13.10;61.50
3017;DHT22;1518;52.408;13.060;2022-12-18T11:23:49;13.00;61.60
3017;DHT22;1518;52.408;13.060;2022-12-18T11:26:37;12.90;61.60
3017;DHT22;1518;52.408;13.060;2022-12-18T11:29:33;12.80;61.80
3017;DHT22;1518;52.408;13.060;2022-12-18T11:32:29;12.80;62.20
3017;DHT22;1518;52.408;13.060;2022-12-18T11:35:23;12.70;62.30
3017;DHT22;1518;52.408;13.060;2022-12-18T11:38:20;12.70;62.40
3017;DHT22;1518;52.408;13.060;2022-12-18T11:41:16;12.60;62.30
3017;DHT22;1518;52.408;13.060;2022-12-18T11:44:08;12.70;63.50
3017;DHT22;1518;52.408;13.060;2022-12-18T11:47:01;12.80;63.40
3017;DHT22;1518;52.408;13.060;2022-12-18T11:49:52;13.10;63.30
3017;DHT22;1518;52.408;13.060;2022-12-18T11:52:42;13.40;63.00
3017;DHT22;1518;52.408;13.060;2022-12-18T11:55:36;13.60;62.60
3017;DHT22;1518;52.408;13.060;2022-12-18T11:58:36;13.80;62.40
3017;DHT22;1518;52.408;13.060;2022-12-18T12:01:37;13.90;62.20
3017;DHT22;1518;52.408;13.060;2022-12-18T12:04:40;14.00;62.00
3017;DHT22;1518;52.408;13.060;2022-12-18T12:07:38;14.10;61.80
3017;DHT22;1518;52.408;13.060;2022-12-18T12:10:42;14.10;61.70
3017;DHT22;1518;52.408;13.060;2022-12-18T12:13:40;14.10;61.60
3017;DHT22;1518;52.408;13.060;2022-12-18T12:16:36;14.10;61.40
3017;DHT22;1518;52.408;13.060;2022-12-18T12:19:40;14.10;61.40
3017;DHT22;1518;52.408;13.060;2022-12-18T12:22:37;14.10;61.30
3017;DHT22;1518;52.408;13.060;2022-12-18T12:25:36;14.00;61.30
3017;DHT22;1518;52.408;13.060;2022-12-18T12:28:36;14.00;61.50
3017;DHT22;1518;52.408;13.060;2022-12-18T12:31:41;13.90;61.50
3017;DHT22;1518;52.408;13.060;2022-12-18T12:34:34;13.70;60.90
3017;DHT22;1518;52.408;13.060;2022-12-18T12:37:30;13.60;61.30
3017;DHT22;1518;52.408;13.060;2022-12-18T12:40:24;13.50;61.10
3017;DHT22;1518;52.408;13.060;2022-12-18T12:43:40;13.40;61.30
3017;DHT22;1518;52.408;13.060;2022-12-18T12:46:37;13.30;61.40
3017;DHT22;1518;52.408;13.060;2022-12-18T12:49:29;13.20;61.70
3017;DHT22;1518;52.408;13.060;2022-12-18T12:52:31;13.10;61.80
3017;DHT22;1518;52.408;13.060;2022-12-18T12:55:23;13.00;61.90
3017;DHT22;1518;52.408;13.060;2022-12-18T12:58:18;13.00;62.30
3017;DHT22;1518;52.408;13.060;2022-12-18T13:01:19;12.90;62.10
3017;DHT22;1518;52.408;13.060;2022-12-18T13:04:18;12.90;62.70
3017;DHT22;1518;52.408;13.060;2022-12-18T13:07:14;12.90;63.30
3017;DHT22;1518;52.408;13.060;2022-12-18T13:10:24;13.10;63.30
3017;DHT22;1518;52.408;13.060;2022-12-18T13:13:13;13.30;63.10
3017;DHT22;1518;52.408;13.060;2022-12-18T13:16:09;13.60;62.90
3017;DHT22;1518;52.408;13.060;2022-12-18T13:18:58;13.80;62.50
3017;DHT22;1518;52.408;13.060;2022-12-18T13:21:53;13.90;62.30
3017;DHT22;1518;52.408;13.060;2022-12-18T13:24:41;14.00;62.10
3017;DHT22;1518;52.408;13.060;2022-12-18T13:31:01;14.10;61.80
3017;DHT22;1518;52.408;13.060;2022-12-18T13:33:49;14.20;61.80
3017;DHT22;1518;52.408;13.060;2022-12-18T13:37:39;14.20;61.70
3017;DHT22;1518;52.408;13.060;2022-12-18T13:40:56;14.10;61.60
3017;DHT22;1518;52.408;13.060;2022-12-18T13:43:46;14.10;61.60
3017;DHT22;1518;52.408;13.060;2022-12-18T13:46:43;14.10;61.40
3017;DHT22;1518;52.408;13.060;2022-12-18T13:49:38;14.00;61.40
3017;DHT22;1518;52.408;13.060;2022-12-18T13:52:28;14.00;61.30
3017;DHT22;1518;52.408;13.060;2022-12-18T13:55:22;13.90;61.30
3017;DHT22;1518;52.408;13.060;2022-12-18T13:58:11;13.70;61.50
3017;DHT22;1518;52.408;13.060;2022-12-18T14:01:00;13.70;61.60
3017;DHT22;1518;52.408;13.060;2022-12-18T14:04:08;13.60;61.50
3017;DHT22;1518;52.408;13.060;2022-12-18T14:07:01;13.50;61.60
3017;DHT22;1518;52.408;13.060;2022-12-18T14:09:53;13.40;61.60
3017;DHT22;1518;52.408;13.060;2022-12-18T14:13:06;13.30;61.70
3017;DHT22;1518;52.408;13.060;2022-12-18T14:15:56;13.20;62.20
3017;DHT22;1518;52.408;13.060;2022-12-18T14:18:48;13.10;62.00
3017;DHT22;1518;52.408;13.060;2022-12-18T14:21:37;13.00;61.90
3017;DHT22;1518;52.408;13.060;2022-12-18T14:24:26;13.00;62.30
3017;DHT22;1518;52.408;13.060;2022-12-18T14:27:25;12.90;62.50
3017;DHT22;1518;52.408;13.060;2022-12-18T14:30:24;12.90;63.30
3017;DHT22;1518;52.408;13.060;2022-12-18T14:33:14;13.00;63.30
3017;DHT22;1518;52.408;13.060;2022-12-18T14:36:04;13.20;63.30
3017;DHT22;1518;52.408;13.060;2022-12-18T14:38:54;13.30;63.20
3017;DHT22;1518;52.408;13.060;2022-12-18T14:41:42;13.40;63.00
3017;DHT22;1518;52.408;13.060;2022-12-18T14:44:32;13.40;62.70
3017;DHT22;1518;52.408;13.060;2022-12-18T14:47:36;13.50;62.70
3017;DHT22;1518;52.408;13.060;2022-12-18T14:50:24;13.50;62.60
3017;DHT22;1518;52.408;13.060;2022-12-18T14:53:20;13.60;62.70
3017;DHT22;1518;52.408;13.060;2022-12-18T14:56:15;13.50;62.40
3017;DHT22;1518;52.408;13.060;2022-12-18T14:59:06;13.50;62.30
3017;DHT22;1518;52.408;13.060;2022-12-18T15:02:17;13.50;62.30
3017;DHT22;1518;52.408;13.060;2022-12-18T15:05:17;13.40;62.00
3017;DHT22;1518;52.408;13.060;2022-12-18T15:08:31;13.30;62.00
3017;DHT22;1518;52.408;13.060;2022-12-18T15:11:27;13.20;61.90
3017;DHT22;1518;52.408;13.060;2022-12-18T15:14:23;13.20;62.30
3017;DHT22;1518;52.408;13.060;2022-12-18T15:17:17;13.10;62.20
3017;DHT22;1518;52.408;13.060;2022-12-18T15:20:09;13.00;62.20
3017;DHT22;1518;52.408;13.060;2022-12-18T15:22:58;12.90;62.10
3017;DHT22;1518;52.408;13.060;2022-12-18T15:25:47;12.90;62.50
3017;DHT22;1518;52.408;13.060;2022-12-18T15:28:38;12.80;62.40
3017;DHT22;1518;52.408;13.060;2022-12-18T15:31:31;12.80;62.80
3017;DHT22;1518;52.408;13.060;2022-12-18T15:34:23;12.70;63.30
3017;DHT22;1518;52.408;13.060;2022-12-18T15:37:12;12.90;63.60
3017;DHT22;1518;52.408;13.060;2022-12-18T15:40:00;13.00;63.40
3017;DHT22;1518;52.408;13.060;2022-12-18T15:42:51;13.30;63.60
3017;DHT22;1518;52.408;13.060;2022-12-18T15:45:58;13.30;63.90
3017;DHT22;1518;52.408;13.060;2022-12-18T15:48:47;13.40;62.90
3017;DHT22;1518;52.408;13.060;2022-12-18T15:51:38;13.50;62.90
3017;DHT22;1518;52.408;13.060;2022-12-18T15:54:26;13.50;62.60
3017;DHT22;1518;52.408;13.060;2022-12-18T15:57:32;13.60;62.60
3017;DHT22;1518;52.408;13.060;2022-12-18T16:00:20;13.60;62.40
3017;DHT22;1518;52.408;13.060;2022-12-18T16:03:08;13.60;62.40
3017;DHT22;1518;52.408;13.060;2022-12-18T16:05:56;13.60;62.30
3017;DHT22;1518;52.408;13.060;2022-12-18T16:08:47;13.60;62.40
3017;DHT22;1518;52.408;13.060;2022-12-18T16:11:37;13.40;61.90
3017;DHT22;1518;52.408;13.060;2022-12-18T16:14:29;13.40;62.00
3017;DHT22;1518;52.408;13.060;2022-12-18T16:17:17;13.30;61.70
3017;DHT22;1518;52.408;13.060;2022-12-18T16:20:08;13.20;61.60
3017;DHT22;1518;52.408;13.060;2022-12-18T16:22:59;13.10;75.10
3017;DHT22;1518;52.408;13.060;2022-12-18T16:25:49;13.10;62.20
3017;DHT22;1518;52.408;13.060;2022-12-18T16:28:38;13.00;62.10
3017;DHT22;1518;52.408;13.060;2022-12-18T16:31:34;12.90;61.90
3017;DHT22;1518;52.408;13.060;2022-12-18T16:34:23;12.80;62.10
3017;DHT22;1518;52.408;13.060;2022-12-18T16:37:15;12.80;62.40
3017;DHT22;1518;52.408;13.060;2022-12-18T16:40:04;12.70;62.60
3017;DHT22;1518;52.408;13.060;2022-12-18T16:42:56;12.70;63.10
3017;DHT22;1518;52.408;13.060;2022-12-18T16:45:44;12.70;63.70
3017;DHT22;1518;52.408;13.060;2022-12-18T16:48:32;12.90;63.60
3017;DHT22;1518;52.408;13.060;2022-12-18T16:51:21;13.20;63.60
3017;DHT22;1518;52.408;13.060;2022-12-18T16:54:09;13.50;63.20
3017;DHT22;1518;52.408;13.060;2022-12-18T16:57:04;13.70;62.80
3017;DHT22;1518;52.408;13.060;2022-12-18T16:59:54;13.90;62.50
3017;DHT22;1518;52.408;13.060;2022-12-18T17:02:50;14.10;61.80
3017;DHT22;1518;52.408;13.060;2022-12-18T17:05:39;14.20;61.40
3017;DHT22;1518;52.408;13.060;2022-12-18T17:08:27;14.20;61.90
3017;DHT22;1518;52.408;13.060;2022-12-18T17:11:15;14.30;61.70
3017;DHT22;1518;52.408;13.060;2022-12-18T17:14:05;14.30;61.60
3017;DHT22;1518;52.408;13.060;2022-12-18T17:16:55;14.30;61.40
3017;DHT22;1518;52.408;13.060;2022-12-18T17:20:04;14.30;61.40
3017;DHT22;1518;52.408;13.060;2022-12-18T17:22:52;14.30;61.40
3017;DHT22;1518;52.408;13.060;2022-12-18T17:25:41;14.30;61.30
3017;DHT22;1518;52.408;13.060;2022-12-18T17:28:29;14.20;61.30
3017;DHT22;1518;52.408;13.060;2022-12-18T17:31:21;14.10;61.20
3017;DHT22;1518;52.408;13.060;2022-12-18T17:34:11;14.00;61.10
3017;DHT22;1518;52.408;13.060;2022-12-18T17:36:59;13.90;61.00
3017;DHT22;1518;52.408;13.060;2022-12-18T17:39:48;13.90;61.10
3017;DHT22;1518;52.408;13.060;2022-12-18T17:42:36;13.70;61.10
3017;DHT22;1518;52.408;13.060;2022-12-18T17:45:24;13.60;61.00
3017;DHT22;1518;52.408;13.060;2022-12-18T17:48:12;13.50;60.70
3017;DHT22;1518;52.408;13.060;2022-12-18T17:51:03;13.40;61.10
3017;DHT22;1518;52.408;13.060;2022-12-18T17:53:51;13.30;61.10
3017;DHT22;1518;52.408;13.060;2022-12-18T17:56:39;13.20;61.40
3017;DHT22;1518;52.408;13.060;2022-12-18T17:59:27;13.10;61.20
3017;DHT22;1518;52.408;13.060;2022-12-18T18:02:15;13.00;61.50
3017;DHT22;1518;52.408;13.060;2022-12-18T18:05:04;12.90;61.70
3017;DHT22;1518;52.408;13.060;2022-12-18T18:07:54;12.90;61.90
3017;DHT22;1518;52.408;13.060;2022-12-18T18:10:42;12.90;62.10
3017;DHT22;1518;52.408;13.060;2022-12-18T18:13:31;12.90;62.10
3017;DHT22;1518;52.408;13.060;2022-12-18T18:16:39;12.80;62.40
3017;DHT22;1518;52.408;13.060;2022-12-18T18:19:27;12.90;63.20
3017;DHT22;1518;52.408;13.060;2022-12-18T18:22:15;13.00;63.10
3017;DHT22;1518;52.408;13.060;2022-12-18T18:25:07;13.00;62.90